createdAt,value
2018-07-31T00:01:45.260Z,23.90
2018-07-31T00:04:13.700Z,23.90
2018-07-31T00:06:42.172Z,23.80
2018-07-31T00:09:10.613Z,23.70
2018-07-31T00:11:39.068Z,23.70
2018-07-31T00:14:07.508Z,23.70
2018-07-31T00:16:36.590Z,23.60
2018-07-31T00:19:05.103Z,23.50
2018-07-31T00:24:01.681Z,23.40
2018-07-31T00:26:30.101Z,23.30
2018-07-31T00:28:58.515Z,23.30
2018-07-31T00:31:26.888Z,23.20
2018-07-31T00:33:55.371Z,23.20
2018-07-31T00:36:23.720Z,23.20
2018-07-31T00:38:52.156Z,23.10
2018-07-31T00:41:20.570Z,23.10
2018-07-31T00:43:49.022Z,23.10
2018-07-31T00:46:17.442Z,23.10
2018-07-31T00:48:45.889Z,23.20
2018-07-31T00:51:14.313Z,23.20
2018-07-31T00:53:42.830Z,23.20
2018-07-31T00:56:11.290Z,23.20
2018-07-31T00:58:39.734Z,23.10
2018-07-31T01:01:08.167Z,23.10
2018-07-31T01:03:36.600Z,23.00
2018-07-31T01:06:05.082Z,22.90
2018-07-31T01:08:33.512Z,22.80
2018-07-31T01:11:02.023Z,22.70
2018-07-31T01:13:30.411Z,22.70
2018-07-31T01:15:58.876Z,22.60
2018-07-31T01:18:27.278Z,22.60
2018-07-31T01:20:55.683Z,22.50
2018-07-31T01:23:24.141Z,22.50
2018-07-31T01:25:52.619Z,22.40
2018-07-31T01:28:21.044Z,22.40
2018-07-31T01:30:49.562Z,22.40
2018-07-31T01:33:17.951Z,22.40
2018-07-31T01:35:46.382Z,22.40
2018-07-31T01:38:14.767Z,22.30
2018-07-31T01:43:11.330Z,22.20
2018-07-31T01:45:39.729Z,22.20
2018-07-31T01:48:08.170Z,22.10
2018-07-31T01:50:36.756Z,22.10
2018-07-31T01:53:05.200Z,22.10
2018-07-31T01:55:33.763Z,22.00
2018-07-31T01:58:02.208Z,22.00
2018-07-31T02:00:30.664Z,22.00
2018-07-31T02:02:59.080Z,21.90
2018-07-31T02:05:34.114Z,21.90
2018-07-31T02:08:02.539Z,21.90
2018-07-31T02:10:30.981Z,21.80
2018-07-31T02:12:59.360Z,21.80
2018-07-31T02:15:27.789Z,21.70
2018-07-31T02:17:56.168Z,21.60
2018-07-31T02:20:24.680Z,21.60
2018-07-31T02:22:53.075Z,21.60
2018-07-31T02:25:21.505Z,21.50
2018-07-31T02:27:49.879Z,21.50
2018-07-31T02:30:22.537Z,21.50
2018-07-31T02:32:51.952Z,21.50
2018-07-31T02:35:20.379Z,21.50
2018-07-31T02:37:48.844Z,21.50
2018-07-31T02:40:17.270Z,21.50
2018-07-31T02:42:45.713Z,21.50
2018-07-31T02:45:14.867Z,21.50
2018-07-31T02:47:44.242Z,21.40
2018-07-31T02:50:12.668Z,21.40
2018-07-31T02:52:41.436Z,21.40
2018-07-31T02:55:10.879Z,21.40
2018-07-31T02:57:39.808Z,21.30
2018-07-31T03:00:09.432Z,21.30
2018-07-31T03:02:37.928Z,21.30
2018-07-31T03:05:08.615Z,21.20
2018-07-31T03:07:37.038Z,21.20
2018-07-31T03:10:06.845Z,21.20
2018-07-31T03:12:35.219Z,21.10
2018-07-31T03:15:03.925Z,21.10
2018-07-31T03:17:32.423Z,21.00
2018-07-31T03:20:00.905Z,21.00
2018-07-31T03:22:29.328Z,20.90
2018-07-31T03:24:57.761Z,20.80
2018-07-31T03:27:26.168Z,20.80
2018-07-31T03:29:54.569Z,20.70
2018-07-31T03:32:23.032Z,20.70
2018-07-31T03:34:51.556Z,20.70
2018-07-31T03:37:19.948Z,20.60
2018-07-31T03:39:48.422Z,20.60
2018-07-31T03:42:16.821Z,20.50
2018-07-31T03:44:45.218Z,20.50
2018-07-31T03:47:14.157Z,20.50
2018-07-31T03:49:45.859Z,20.50
2018-07-31T03:52:14.393Z,20.50
2018-07-31T03:54:42.956Z,20.50
2018-07-31T03:57:11.398Z,20.40
2018-07-31T03:59:39.914Z,20.40
2018-07-31T04:02:08.402Z,20.40
2018-07-31T04:04:37.041Z,20.40
2018-07-31T04:07:05.676Z,20.40
2018-07-31T04:09:34.109Z,20.40
2018-07-31T04:12:03.768Z,20.40
2018-07-31T04:14:34.938Z,20.40
2018-07-31T04:17:03.502Z,20.40
2018-07-31T04:19:31.987Z,20.50
2018-07-31T04:22:03.711Z,20.50
2018-07-31T04:24:32.309Z,20.50
2018-07-31T04:27:00.673Z,20.50
2018-07-31T04:29:29.155Z,20.50
2018-07-31T04:31:57.650Z,20.50
2018-07-31T04:34:26.136Z,20.50
2018-07-31T04:36:59.359Z,20.50
2018-07-31T04:39:27.847Z,20.50
2018-07-31T04:41:56.244Z,20.50
2018-07-31T04:44:24.620Z,20.50
2018-07-31T04:46:53.038Z,20.60
2018-07-31T04:49:21.392Z,20.60
2018-07-31T04:51:49.791Z,20.70
2018-07-31T04:54:18.222Z,20.80
2018-07-31T04:56:46.675Z,20.80
2018-07-31T04:59:15.072Z,20.80
2018-07-31T05:01:43.544Z,20.90
2018-07-31T05:04:11.992Z,20.90
2018-07-31T05:06:40.533Z,21.00
2018-07-31T05:09:10.736Z,21.00
2018-07-31T05:11:39.353Z,21.10
2018-07-31T05:14:09.687Z,21.10
2018-07-31T05:16:39.097Z,21.10
2018-07-31T05:19:09.152Z,21.20
2018-07-31T05:21:38.430Z,21.30
2018-07-31T05:24:08.536Z,21.30
2018-07-31T05:26:37.996Z,21.40
2018-07-31T05:29:07.696Z,21.50
2018-07-31T05:31:37.429Z,21.50
2018-07-31T05:34:06.578Z,21.50
2018-07-31T05:36:36.355Z,21.50
2018-07-31T05:39:10.110Z,21.60
2018-07-31T05:41:40.638Z,21.60
2018-07-31T05:44:09.985Z,21.70
2018-07-31T05:46:39.636Z,21.80
2018-07-31T05:49:09.130Z,21.80
2018-07-31T05:51:38.234Z,21.90
2018-07-31T05:54:08.495Z,22.00
2018-07-31T05:56:37.707Z,22.00
2018-07-31T05:59:07.158Z,22.10
2018-07-31T06:01:36.952Z,22.20
2018-07-31T06:04:06.520Z,22.30
2018-07-31T06:06:36.077Z,22.40
2018-07-31T06:09:08.365Z,22.50
2018-07-31T06:11:38.485Z,22.60
2018-07-31T06:14:08.661Z,22.70
2018-07-31T06:16:39.757Z,22.70
2018-07-31T06:19:09.542Z,22.80
2018-07-31T06:21:38.890Z,23.00
2018-07-31T06:24:08.740Z,23.00
2018-07-31T06:26:38.996Z,23.10
2018-07-31T06:29:08.208Z,23.30
2018-07-31T06:31:37.801Z,23.30
2018-07-31T06:34:06.991Z,23.50
2018-07-31T06:36:37.925Z,23.50
2018-07-31T06:39:09.982Z,23.60
2018-07-31T06:41:39.829Z,23.70
2018-07-31T06:44:09.638Z,23.80
2018-07-31T06:46:39.310Z,23.90
2018-07-31T06:49:09.024Z,24.10
2018-07-31T06:51:38.518Z,24.20
2018-07-31T06:54:08.396Z,24.30
2018-07-31T06:56:37.197Z,24.50
2018-07-31T06:59:12.883Z,24.60
2018-07-31T07:04:51.084Z,24.90
2018-07-31T07:07:37.220Z,25.00
2018-07-31T07:10:46.872Z,25.10
2018-07-31T07:13:20.288Z,25.10
2018-07-31T07:15:54.256Z,25.30
2018-07-31T07:18:29.289Z,25.40
2018-07-31T07:21:05.188Z,25.50
2018-07-31T07:23:33.711Z,25.60
2018-07-31T07:26:03.767Z,25.70
2018-07-31T07:28:33.818Z,25.80
2018-07-31T07:31:03.896Z,26.00
2018-07-31T07:33:34.076Z,26.10
2018-07-31T07:36:04.084Z,26.20
2018-07-31T07:38:33.789Z,26.30
2018-07-31T07:41:03.644Z,26.40
2018-07-31T07:43:34.003Z,26.40
2018-07-31T07:46:02.692Z,26.50
2018-07-31T07:48:32.238Z,26.60
2018-07-31T07:51:02.040Z,26.70
2018-07-31T07:53:31.049Z,26.80
2018-07-31T07:56:00.405Z,26.90
2018-07-31T07:58:30.173Z,27.00
2018-07-31T08:01:00.405Z,27.10
2018-07-31T08:03:29.089Z,27.20
2018-07-31T08:05:58.899Z,27.30
2018-07-31T09:35:01.772Z,32.20
2018-07-31T11:45:03.727Z,36.40
2018-07-31T11:47:32.464Z,36.20
2018-07-31T11:50:00.942Z,38.90
2018-07-31T11:52:29.524Z,38.90
2018-07-31T11:54:58.008Z,38.60
2018-07-31T11:57:26.434Z,38.40
2018-07-31T11:59:55.053Z,38.70
2018-07-31T12:02:23.534Z,39.00
2018-07-31T12:04:51.901Z,39.10
2018-07-31T12:07:20.359Z,39.60
2018-07-31T12:09:48.900Z,40.70
2018-07-31T12:12:17.266Z,42.80
2018-07-31T12:14:46.260Z,44.70
2018-07-31T12:17:14.744Z,46.30
2018-07-31T12:22:11.397Z,47.30
2018-07-31T12:24:39.830Z,47.00
2018-07-31T12:27:08.297Z,47.50
2018-07-31T12:29:36.764Z,48.10
2018-07-31T12:32:05.346Z,47.90
2018-07-31T12:34:33.828Z,46.20
2018-07-31T12:37:02.269Z,43.30
2018-07-31T12:39:30.693Z,41.00
2018-07-31T12:41:59.149Z,39.80
2018-07-31T12:44:27.583Z,40.90
2018-07-31T12:46:56.099Z,42.50
2018-07-31T12:49:24.677Z,44.30
2018-07-31T12:51:53.076Z,45.50
2018-07-31T12:54:21.480Z,45.10
2018-07-31T12:56:49.891Z,45.10
2018-07-31T12:59:18.356Z,46.30
2018-07-31T13:01:46.807Z,47.00
2018-07-31T13:04:15.257Z,46.70
2018-07-31T13:06:43.713Z,45.60
2018-07-31T13:09:12.094Z,45.00
2018-07-31T13:11:40.516Z,45.20
2018-07-31T13:14:08.984Z,45.40
2018-07-31T13:16:37.408Z,46.10
2018-07-31T13:19:05.933Z,47.60
2018-07-31T13:21:34.385Z,48.60
2018-07-31T13:24:02.794Z,48.90
2018-07-31T13:26:31.291Z,48.60
2018-07-31T13:28:59.708Z,48.70
2018-07-31T13:31:28.160Z,49.10
2018-07-31T13:33:56.507Z,49.60
2018-07-31T13:36:25.169Z,50.10
2018-07-31T13:38:53.556Z,49.00
2018-07-31T13:41:28.942Z,48.50
2018-07-31T13:43:57.484Z,48.10
2018-07-31T13:46:25.825Z,47.00
2018-07-31T13:48:54.359Z,46.00
2018-07-31T13:51:22.869Z,44.70
2018-07-31T13:53:51.413Z,44.80
2018-07-31T13:56:19.891Z,44.50
2018-07-31T13:58:48.441Z,44.30
2018-07-31T14:01:16.876Z,43.40
2018-07-31T14:03:45.473Z,42.80
2018-07-31T14:06:15.100Z,42.30
2018-07-31T14:08:43.556Z,42.00
2018-07-31T14:11:11.945Z,42.20
2018-07-31T14:13:40.409Z,43.10
2018-07-31T14:16:08.796Z,44.70
2018-07-31T14:18:37.872Z,46.40
2018-07-31T14:21:06.336Z,46.20
2018-07-31T14:23:34.737Z,45.60
2018-07-31T14:26:03.174Z,44.80
2018-07-31T14:28:31.675Z,44.20
2018-07-31T14:31:00.941Z,43.40
2018-07-31T14:33:30.671Z,42.90
2018-07-31T14:35:59.137Z,42.40
2018-07-31T14:38:27.739Z,41.90
2018-07-31T14:40:57.915Z,41.40
2018-07-31T14:43:26.432Z,41.10
2018-07-31T14:45:55.681Z,40.40
2018-07-31T14:48:24.149Z,39.60
2018-07-31T14:50:52.484Z,38.80
2018-07-31T14:53:20.963Z,39.10
2018-07-31T14:55:49.389Z,39.90
2018-07-31T14:58:17.822Z,40.00
2018-07-31T15:00:46.261Z,40.00
2018-07-31T15:03:14.739Z,40.20
2018-07-31T15:05:43.145Z,40.20
2018-07-31T15:08:11.573Z,39.70
2018-07-31T15:10:40.071Z,39.10
2018-07-31T15:13:08.566Z,39.40
2018-07-31T15:15:37.554Z,39.90
2018-07-31T15:18:06.199Z,40.00
2018-07-31T15:20:34.715Z,40.10
2018-07-31T15:23:03.172Z,40.40
2018-07-31T15:25:32.212Z,40.60
2018-07-31T15:28:00.659Z,40.20
2018-07-31T15:30:29.980Z,39.80
2018-07-31T15:32:58.428Z,39.40
2018-07-31T15:35:26.954Z,39.10
2018-07-31T15:37:55.986Z,38.90
2018-07-31T15:40:24.491Z,39.00
2018-07-31T15:42:53.754Z,38.90
2018-07-31T15:45:22.210Z,38.70
2018-07-31T15:47:50.697Z,38.80
2018-07-31T15:50:19.346Z,38.70
2018-07-31T15:52:47.928Z,38.60
2018-07-31T15:55:16.402Z,38.50
2018-07-31T15:57:44.818Z,38.50
2018-07-31T16:00:13.300Z,38.40
2018-07-31T16:02:41.714Z,38.10
2018-07-31T16:05:13.184Z,37.80
2018-07-31T16:07:41.627Z,37.40
2018-07-31T16:10:10.144Z,37.00
2018-07-31T16:12:38.577Z,37.00
2018-07-31T16:15:07.138Z,37.20
2018-07-31T16:17:35.624Z,37.40
2018-07-31T16:20:04.644Z,37.60
2018-07-31T16:22:33.201Z,37.70
2018-07-31T16:25:01.635Z,37.70
2018-07-31T16:27:30.028Z,37.20
2018-07-31T16:29:58.607Z,36.90
2018-07-31T16:32:27.090Z,36.70
2018-07-31T16:34:55.665Z,36.60
2018-07-31T16:37:24.358Z,36.50
2018-07-31T16:39:52.829Z,36.20
2018-07-31T16:42:21.322Z,35.90
2018-07-31T16:44:49.816Z,35.50
2018-07-31T16:47:18.587Z,35.20
2018-07-31T16:49:46.961Z,34.70
2018-07-31T16:52:15.450Z,34.20
2018-07-31T16:54:43.957Z,33.70
2018-07-31T16:57:12.416Z,33.40
2018-07-31T16:59:40.895Z,33.20
2018-07-31T17:02:09.433Z,33.20
2018-07-31T17:04:37.867Z,33.20
2018-07-31T17:07:06.370Z,33.40
2018-07-31T17:09:34.883Z,33.50
2018-07-31T17:12:03.285Z,33.80
2018-07-31T17:14:31.710Z,34.00
2018-07-31T17:17:00.782Z,34.10
2018-07-31T17:19:29.329Z,34.30
2018-07-31T17:21:57.840Z,34.60
2018-07-31T17:24:26.297Z,34.80
2018-07-31T17:26:54.821Z,34.90
2018-07-31T17:29:23.248Z,34.90
2018-07-31T17:31:51.696Z,34.80
2018-07-31T17:34:20.273Z,35.20
2018-07-31T17:36:48.706Z,35.90
2018-07-31T17:39:17.155Z,36.90
2018-07-31T17:41:45.581Z,37.50
2018-07-31T17:44:14.047Z,37.40
2018-07-31T17:46:42.514Z,36.50
2018-07-31T17:49:10.894Z,35.40
2018-07-31T17:51:39.332Z,34.50
2018-07-31T17:54:08.161Z,33.80
2018-07-31T17:56:36.637Z,33.30
2018-07-31T17:59:05.136Z,32.90
2018-07-31T18:01:33.639Z,32.60
2018-07-31T18:04:02.055Z,32.30
2018-07-31T18:06:30.537Z,32.00
2018-07-31T18:08:59.069Z,31.80
2018-07-31T18:11:30.507Z,31.60
2018-07-31T18:13:59.691Z,31.50
2018-07-31T18:16:32.477Z,31.40
2018-07-31T18:19:01.327Z,31.20
2018-07-31T18:21:33.714Z,31.10
2018-07-31T18:24:02.300Z,31.00
2018-07-31T18:26:30.734Z,30.90
2018-07-31T18:28:59.153Z,30.90
2018-07-31T18:31:27.587Z,30.80
2018-07-31T18:33:56.025Z,30.70
2018-07-31T18:44:00.459Z,30.60
2018-07-31T18:46:28.957Z,30.50
2018-07-31T18:48:58.527Z,30.10
2018-07-31T18:51:28.225Z,30.00
2018-07-31T18:53:57.482Z,29.90
2018-07-31T18:56:28.249Z,29.80
2018-07-31T18:58:56.684Z,29.70
2018-07-31T19:01:26.141Z,29.60
2018-07-31T19:03:54.554Z,29.40
2018-07-31T19:06:23.008Z,29.30
2018-07-31T19:08:51.535Z,29.20
2018-07-31T19:11:20.007Z,29.10
2018-07-31T19:13:48.553Z,29.00
2018-07-31T19:16:17.035Z,29.00
2018-07-31T19:18:45.677Z,28.90
2018-07-31T19:21:20.742Z,28.90
2018-07-31T19:26:23.895Z,28.70
2018-07-31T19:28:53.839Z,28.70
2018-07-31T19:31:22.367Z,28.60
2018-07-31T19:33:50.998Z,28.50
2018-07-31T19:36:20.767Z,28.50
2018-07-31T19:38:49.230Z,28.40
2018-07-31T19:41:17.635Z,28.30
2018-07-31T19:46:32.212Z,28.40
2018-07-31T19:49:01.865Z,28.30
2018-07-31T19:51:30.418Z,28.30
2018-07-31T19:53:58.842Z,28.20
2018-07-31T19:56:27.625Z,28.20
2018-07-31T19:58:56.085Z,28.10
2018-07-31T20:01:24.605Z,28.00
2018-07-31T20:03:53.526Z,28.00
2018-07-31T20:06:22.149Z,28.00
2018-07-31T20:08:50.593Z,28.00
2018-07-31T20:11:19.091Z,28.00
2018-07-31T20:13:47.473Z,28.00
2018-07-31T20:16:16.137Z,27.90
2018-07-31T20:18:44.583Z,27.90
2018-07-31T20:21:13.151Z,27.90
2018-07-31T20:23:41.571Z,27.90
2018-07-31T20:26:10.089Z,27.80
2018-07-31T20:28:38.600Z,27.80
2018-07-31T20:31:07.492Z,27.80
2018-07-31T20:33:35.910Z,27.80
2018-07-31T20:36:04.346Z,27.80
2018-07-31T20:38:32.777Z,27.70
2018-07-31T20:41:01.157Z,27.70
2018-07-31T20:43:29.767Z,27.60
2018-07-31T20:45:58.215Z,27.60
2018-07-31T20:48:26.641Z,27.60
2018-07-31T20:50:56.818Z,27.60
2018-07-31T20:53:25.647Z,27.60
2018-07-31T20:55:54.395Z,27.60
2018-07-31T20:58:23.125Z,27.60
2018-07-31T21:00:51.637Z,27.50
2018-07-31T21:03:20.121Z,27.50
2018-07-31T21:05:48.549Z,27.60
2018-07-31T21:08:17.083Z,27.60
2018-07-31T21:10:52.929Z,27.60
2018-07-31T21:15:50.490Z,27.60
2018-07-31T21:18:19.280Z,27.50
2018-07-31T21:20:56.288Z,27.40
2018-07-31T21:23:24.988Z,27.40
2018-07-31T21:25:53.729Z,27.30
2018-07-31T21:28:23.114Z,27.30
2018-07-31T21:31:04.188Z,27.30
2018-07-31T21:33:32.645Z,27.20
2018-07-31T21:36:01.171Z,27.10
2018-07-31T21:38:30.212Z,27.10
2018-07-31T21:41:11.044Z,27.00
2018-07-31T21:43:39.538Z,26.90
2018-07-31T21:46:08.222Z,26.90
2018-07-31T21:48:36.720Z,26.90
2018-07-31T21:51:05.218Z,26.80
2018-07-31T21:53:34.475Z,26.80
2018-07-31T21:56:03.790Z,26.70
2018-07-31T21:58:38.181Z,26.70
2018-07-31T22:01:12.557Z,26.60
2018-07-31T22:03:40.994Z,26.60
2018-07-31T22:06:09.416Z,26.60
2018-07-31T22:08:38.392Z,26.50
2018-07-31T22:11:07.670Z,26.50
2018-07-31T22:13:36.074Z,26.50
2018-07-31T22:16:04.503Z,26.50
2018-07-31T22:18:32.943Z,26.50
2018-07-31T22:21:01.336Z,26.50
2018-07-31T22:23:29.818Z,26.50
2018-07-31T22:25:58.210Z,26.50
2018-07-31T22:28:26.660Z,26.50
2018-07-31T22:30:55.094Z,26.50
2018-07-31T22:33:23.552Z,26.50
2018-07-31T22:35:52.037Z,26.50
2018-07-31T22:38:20.496Z,26.50
2018-07-31T22:40:48.985Z,26.50
2018-07-31T22:43:17.396Z,26.40
2018-07-31T22:45:46.547Z,26.30
2018-07-31T22:48:14.942Z,26.20
2018-07-31T22:50:43.407Z,26.20
2018-07-31T22:53:12.050Z,26.10
2018-07-31T22:55:40.521Z,26.10
2018-07-31T22:58:08.959Z,26.10
2018-07-31T23:00:37.453Z,26.00
2018-07-31T23:03:05.894Z,26.00
2018-07-31T23:05:34.333Z,26.00
2018-07-31T23:08:02.721Z,25.90
2018-07-31T23:10:31.185Z,25.90
2018-07-31T23:12:59.613Z,25.90
2018-07-31T23:15:28.110Z,25.80
2018-07-31T23:17:56.505Z,25.80
2018-07-31T23:20:25.616Z,25.80
2018-07-31T23:22:54.516Z,25.70
2018-07-31T23:25:22.927Z,25.60
2018-07-31T23:27:51.485Z,25.60
2018-07-31T23:30:19.941Z,25.50
2018-07-31T23:32:48.378Z,25.40
2018-07-31T23:35:16.931Z,25.40
2018-07-31T23:37:45.464Z,25.40
2018-07-31T23:40:13.905Z,25.30
2018-07-31T23:42:42.293Z,25.30
2018-07-31T23:45:10.850Z,25.30
2018-07-31T23:47:39.268Z,25.30
2018-07-31T23:50:09.493Z,25.20
2018-07-31T23:52:37.897Z,25.20
2018-07-31T23:55:06.491Z,25.20
2018-07-31T23:57:34.950Z,25.20
